Dora Bend, Louisiana
Current Conditions -  °F | °C
As of 12:15 PM on Friday 28 Nov 2014 (Local Time) from KOPL Reporting Station
Clear Clear  
Wind Chill: 59°   Ceiling: Unl
Heat Index: 59°   Visibility: 10mi
Dew Point: 38°   Wind: 6mph
Humidity: 46%   Direction: 140°SE
Pressure: 30.34"   Gusts: NA
Location:  30.9908°N, 92.0816°W
Report Text: KOPL 281815Z AUTO 14005KT 10SM CLR 15/03 A3034 RMK AO2 T01490033
Loading
Personal Weather Stations






























Interactive Weather Map New forecast layout! Learn more

10-Day Weather Forecast

Advertisements
Track Severe Weather on mobile